Judson, North Dakota
Current Conditions -  °F | °C
As of 10:15 AM on Sunday 23 Nov 2014 (Local Time) from KD57 Reporting Station
Few Clouds Few Clouds  
Wind Chill:   Ceiling: Unl
Heat Index: 27°   Visibility: 10mi
Dew Point: 16°   Wind: 43mph
Humidity: 64%   Direction: 310°NW
Pressure: 29.53"   Gusts: 53mph
Location:  46.861°N, 101.466°W
Report Text: KD57 231615Z AUTO 31037G46KT 10SM FEW065 M03/M09 A2953 RMK AO2 TSNO
Loading
Personal Weather Stations






























Interactive Weather Map New forecast layout! Learn more

10-Day Weather Forecast

Advertisements
Track Severe Weather on mobile